createdAt,value
2019-02-06T00:01:46.278Z,-1.30
2019-02-06T00:04:16.398Z,-1.20
2019-02-06T00:06:46.322Z,-1.20
2019-02-06T00:09:18.337Z,-1.20
2019-02-06T00:11:48.599Z,-1.30
2019-02-06T00:14:19.734Z,-1.30
2019-02-06T00:16:49.935Z,-1.40
2019-02-06T00:19:20.816Z,-1.40
2019-02-06T00:21:52.842Z,-1.30
2019-02-06T00:24:23.074Z,-1.30
2019-02-06T00:26:53.345Z,-1.30
2019-02-06T00:29:23.114Z,-1.30
2019-02-06T00:31:53.958Z,-1.30
2019-02-06T00:34:26.565Z,-1.40
2019-02-06T00:36:56.799Z,-1.40
2019-02-06T00:39:27.547Z,-1.50
2019-02-06T00:41:57.270Z,-1.40
2019-02-06T00:44:27.911Z,-1.40
2019-02-06T00:46:58.270Z,-1.40
2019-02-06T00:49:29.051Z,-1.40
2019-02-06T00:51:59.439Z,-1.40
2019-02-06T00:54:32.206Z,-1.50
2019-02-06T00:57:02.359Z,-1.40
2019-02-06T00:59:33.126Z,-1.50
2019-02-06T01:02:03.585Z,-1.50
2019-02-06T01:04:34.092Z,-1.60
2019-02-06T01:07:04.257Z,-1.60
2019-02-06T01:09:34.507Z,-1.60
2019-02-06T01:12:04.763Z,-1.60
2019-02-06T01:14:36.994Z,-1.50
2019-02-06T01:17:07.910Z,-1.50
2019-02-06T01:19:41.185Z,-1.60
2019-02-06T01:22:11.675Z,-1.50
2019-02-06T01:24:44.091Z,-1.50
2019-02-06T01:27:14.756Z,-1.50
2019-02-06T01:29:45.486Z,-1.60
2019-02-06T01:32:18.739Z,-1.60
2019-02-06T01:34:48.482Z,-1.60
2019-02-06T01:37:18.215Z,-1.60
2019-02-06T01:39:48.809Z,-1.60
2019-02-06T01:42:21.721Z,-1.60
2019-02-06T01:44:52.204Z,-1.60
2019-02-06T01:47:26.317Z,-1.60
2019-02-06T01:49:56.249Z,-1.70
2019-02-06T01:52:33.179Z,-1.70
2019-02-06T01:55:07.529Z,-1.70
2019-02-06T01:57:49.374Z,-1.60
2019-02-06T02:00:21.313Z,-1.70
2019-02-06T02:02:51.272Z,-1.70
2019-02-06T02:05:24.343Z,-1.70
2019-02-06T02:07:55.447Z,-1.80
2019-02-06T02:10:30.375Z,-1.70
2019-02-06T02:13:00.144Z,-1.70
2019-02-06T02:15:32.969Z,-1.70
2019-02-06T02:18:02.884Z,-1.70
2019-02-06T02:20:32.677Z,-1.70
2019-02-06T02:23:03.171Z,-1.70
2019-02-06T04:46:39.850Z,-2.30
2019-02-06T04:49:12.382Z,-2.30
2019-02-06T04:51:42.842Z,-2.30
2019-02-06T04:54:12.631Z,-2.30
2019-02-06T04:56:47.043Z,-2.30
2019-02-06T04:59:17.325Z,-2.30
2019-02-06T05:01:47.280Z,-2.30
2019-02-06T05:04:20.530Z,-2.30
2019-02-06T05:06:50.678Z,-2.40
2019-02-06T05:09:20.913Z,-2.40
2019-02-06T05:11:52.471Z,-2.30
2019-02-06T05:14:24.795Z,-2.30
2019-02-06T05:16:55.266Z,-2.20
2019-02-06T05:19:25.626Z,-2.40
2019-02-06T05:21:56.853Z,-2.40
2019-02-06T05:24:27.073Z,-2.30
2019-02-06T05:26:57.329Z,-2.30
2019-02-06T05:29:30.451Z,-2.40
2019-02-06T05:32:02.411Z,-2.40
2019-02-06T05:34:36.872Z,-2.40
2019-02-06T05:37:07.125Z,-2.50
2019-02-06T05:39:37.750Z,-2.40
2019-02-06T05:42:08.151Z,-2.50
2019-02-06T05:44:40.683Z,-2.40
2019-02-06T05:47:11.161Z,-2.40
2019-02-06T05:49:42.350Z,-2.60
2019-02-06T05:52:12.550Z,-2.60
2019-02-06T05:54:42.330Z,-2.60
2019-02-06T05:57:18.562Z,-2.60
2019-02-06T05:59:49.310Z,-2.50
2019-02-06T06:02:19.632Z,-2.50
2019-02-06T06:04:49.376Z,-2.60
2019-02-06T06:07:19.384Z,-2.60
2019-02-06T06:09:52.531Z,-2.60
2019-02-06T06:12:24.974Z,-2.60
2019-02-06T06:14:55.353Z,-2.60
2019-02-06T06:17:32.621Z,-2.60
2019-02-06T06:20:13.244Z,-2.60
2019-02-06T06:22:46.753Z,-2.60
2019-02-06T06:25:35.191Z,-2.70
2019-02-06T06:28:19.719Z,-2.70
2019-02-06T06:30:55.941Z,-2.40
2019-02-06T06:33:26.025Z,-2.20
2019-02-06T06:35:56.442Z,-2.40
2019-02-06T06:38:28.290Z,-2.50
2019-02-06T06:40:58.243Z,-2.60
2019-02-06T06:43:28.991Z,-2.80
2019-02-06T06:45:59.714Z,-2.80
2019-02-06T06:48:34.865Z,-2.90
2019-02-06T06:51:05.301Z,-2.90
2019-02-06T06:53:35.369Z,-2.90
2019-02-06T06:56:09.318Z,-2.90
2019-02-06T06:58:45.220Z,-2.90
2019-02-06T07:01:30.088Z,-2.90
2019-02-06T07:04:06.387Z,-2.80
2019-02-06T07:06:55.226Z,-2.80
2019-02-06T07:09:32.538Z,-2.80
2019-02-06T07:12:19.405Z,-2.60
2019-02-06T07:15:06.726Z,-2.60
2019-02-06T07:18:45.921Z,-2.60
2019-02-06T07:21:29.511Z,-2.60
2019-02-06T07:23:53.602Z,-2.50
2019-02-06T07:26:26.738Z,-2.60
2019-02-06T07:40:50.752Z,-2.30
2019-02-06T07:43:21.099Z,-2.20
2019-02-06T07:45:50.609Z,-2.20
2019-02-06T07:48:21.474Z,-2.10
2019-02-06T07:50:52.945Z,-2.00
2019-02-06T07:53:23.638Z,-2.00
2019-02-06T07:55:54.011Z,-1.90
2019-02-06T07:58:24.343Z,-1.80
2019-02-06T08:00:53.998Z,-1.80
2019-02-06T08:03:26.000Z,-1.80
2019-02-06T08:05:55.603Z,-1.70
2019-02-06T08:08:36.223Z,-1.60
2019-02-06T08:11:02.913Z,-1.70
2019-02-06T08:13:37.269Z,-1.60
2019-02-06T08:16:08.121Z,-1.50
2019-02-06T08:18:38.162Z,-1.40
2019-02-06T08:21:08.447Z,-1.40
2019-02-06T08:23:38.507Z,-1.40
2019-02-06T08:26:09.032Z,-1.30
2019-02-06T08:28:40.013Z,-1.30
2019-02-06T08:31:09.440Z,-1.20
2019-02-06T08:33:39.080Z,-1.00
2019-02-06T08:36:09.776Z,-0.90
2019-02-06T08:38:48.130Z,-0.70
2019-02-06T08:41:13.980Z,-0.70
2019-02-06T08:43:44.014Z,-0.60
2019-02-06T08:46:17.312Z,-0.60
2019-02-06T08:48:48.802Z,-0.50
2019-02-06T08:51:18.338Z,-0.40
2019-02-06T08:53:48.594Z,-0.30
2019-02-06T08:56:18.525Z,-0.20
2019-02-06T08:58:48.310Z,-0.10
2019-02-06T09:01:18.065Z,-0.10
2019-02-06T09:03:47.525Z,0.00
2019-02-06T09:06:16.980Z,0.10
2019-02-06T09:08:46.863Z,0.20
2019-02-06T09:11:18.164Z,0.30
2019-02-06T09:13:47.998Z,0.30
2019-02-06T09:16:18.219Z,0.40
2019-02-06T09:18:50.932Z,0.50
2019-02-06T09:21:20.491Z,0.60
2019-02-06T09:23:51.077Z,0.70
2019-02-06T09:26:22.866Z,0.80
2019-02-06T09:28:52.595Z,0.80
2019-02-06T09:31:22.068Z,1.00
2019-02-06T09:33:52.305Z,1.10
2019-02-06T09:36:21.956Z,1.10
2019-02-06T09:38:53.750Z,1.10
2019-02-06T09:41:24.938Z,1.10
2019-02-06T09:43:54.751Z,1.20
2019-02-06T09:46:25.249Z,1.20
2019-02-06T09:48:55.733Z,1.20
2019-02-06T09:51:26.499Z,1.30
2019-02-06T09:53:56.374Z,1.30
2019-02-06T09:56:26.803Z,1.30
2019-02-06T09:58:56.408Z,1.40
2019-02-06T10:01:26.135Z,1.40
2019-02-06T10:03:55.323Z,1.50
2019-02-06T10:06:25.869Z,1.50
2019-02-06T10:08:55.199Z,1.50
2019-02-06T10:11:25.010Z,1.60
2019-02-06T10:13:54.672Z,1.70
2019-02-06T10:16:24.574Z,1.80
2019-02-06T10:18:56.422Z,1.90
2019-02-06T10:21:26.138Z,1.90
2019-02-06T10:23:56.011Z,2.00
2019-02-06T10:26:25.407Z,2.00
2019-02-06T10:28:56.071Z,2.00
2019-02-06T10:31:27.430Z,2.00
2019-02-06T10:33:57.621Z,2.10
2019-02-06T10:36:28.509Z,2.10
2019-02-06T10:38:58.640Z,2.20
2019-02-06T10:41:28.218Z,2.40
2019-02-06T10:43:57.569Z,2.40
2019-02-06T10:46:27.430Z,2.40
2019-02-06T10:48:59.809Z,2.50
2019-02-06T10:51:30.552Z,2.60
2019-02-06T10:54:03.658Z,2.70
2019-02-06T10:56:33.460Z,2.80
2019-02-06T10:59:02.922Z,2.90
2019-02-06T11:01:33.429Z,2.90
2019-02-06T11:04:03.899Z,3.00
2019-02-06T11:06:47.332Z,2.90
2019-02-06T11:09:25.964Z,3.00
2019-02-06T11:12:18.511Z,3.00
2019-02-06T11:14:55.226Z,3.00
2019-02-06T11:34:26.768Z,3.40
2019-02-06T11:35:31.278Z,3.40
2019-02-06T11:46:50.533Z,3.50
2019-02-06T11:57:38.265Z,3.60
2019-02-06T12:03:34.398Z,3.80
2019-02-06T12:03:44.211Z,3.80
2019-02-06T12:07:11.810Z,3.80
2019-02-06T12:16:50.353Z,4.00
2019-02-06T12:20:20.967Z,4.00
2019-02-06T12:24:01.897Z,4.00
2019-02-06T12:27:27.256Z,4.10
2019-02-06T12:40:35.969Z,4.20
2019-02-06T12:43:59.844Z,4.40
2019-02-06T12:46:35.268Z,4.30
2019-02-06T12:49:24.490Z,4.30
2019-02-06T12:52:18.524Z,4.30
2019-02-06T12:55:46.817Z,4.40
2019-02-06T13:02:39.574Z,4.50
2019-02-06T13:09:47.334Z,4.60
2019-02-06T13:12:27.293Z,4.60
2019-02-06T13:15:02.620Z,4.70
2019-02-06T13:18:11.992Z,4.70
2019-02-06T13:21:39.661Z,4.80
2019-02-06T13:24:21.694Z,4.80
2019-02-06T13:29:34.026Z,4.80
2019-02-06T13:32:18.385Z,4.70
2019-02-06T13:35:13.772Z,4.70
2019-02-06T13:37:50.115Z,4.80
2019-02-06T13:41:27.308Z,4.70
2019-02-06T13:43:26.939Z,4.60
2019-02-06T13:46:26.327Z,4.60
2019-02-06T13:49:38.723Z,4.50
2019-02-06T13:52:25.651Z,4.50
2019-02-06T13:55:05.619Z,4.60
2019-02-06T13:57:49.428Z,4.70
2019-02-06T14:00:54.733Z,4.70
2019-02-06T14:04:01.739Z,4.70
2019-02-06T14:14:18.233Z,4.50
2019-02-06T14:36:03.850Z,4.50
2019-02-06T14:40:03.372Z,4.50
2019-02-06T14:47:41.370Z,4.60
2019-02-06T14:55:01.511Z,4.50
2019-02-06T15:10:16.617Z,4.50
2019-02-06T15:13:49.023Z,4.50
2019-02-06T15:16:34.878Z,4.40
2019-02-06T15:19:40.621Z,4.50
2019-02-06T15:22:59.100Z,4.40
2019-02-06T15:26:02.952Z,4.40
2019-02-06T15:29:06.332Z,4.30
2019-02-06T15:32:09.865Z,4.20
2019-02-06T15:35:04.669Z,4.10
2019-02-06T15:38:18.453Z,4.00
2019-02-06T15:41:12.435Z,3.80
2019-02-06T15:44:04.971Z,3.70
2019-02-06T15:47:05.917Z,3.60
2019-02-06T15:49:47.749Z,3.60
2019-02-06T15:52:38.080Z,3.50
2019-02-06T15:55:51.991Z,3.40
2019-02-06T15:58:42.931Z,3.30
2019-02-06T16:02:03.162Z,3.20
2019-02-06T16:05:41.689Z,3.10
2019-02-06T16:08:55.821Z,3.00
2019-02-06T16:12:12.959Z,2.90
2019-02-06T16:15:08.633Z,2.80
2019-02-06T16:18:18.258Z,2.70
2019-02-06T16:21:16.910Z,2.60
2019-02-06T16:24:32.513Z,2.60
2019-02-06T16:27:55.885Z,2.50
2019-02-06T16:31:27.862Z,2.40
2019-02-06T16:34:26.339Z,2.30
2019-02-06T16:37:39.071Z,2.20
2019-02-06T16:40:47.874Z,2.00
2019-02-06T16:43:34.454Z,2.00
2019-02-06T16:46:45.402Z,1.90
2019-02-06T16:49:39.107Z,1.80
2019-02-06T16:52:57.409Z,1.70
2019-02-06T16:56:09.946Z,1.70
2019-02-06T16:59:13.515Z,1.60
2019-02-06T17:02:02.181Z,1.60
2019-02-06T17:04:56.262Z,1.50
2019-02-06T17:08:31.305Z,1.50
2019-02-06T17:11:45.374Z,1.50
2019-02-06T17:14:54.825Z,1.50
2019-02-06T17:17:45.264Z,1.50
2019-02-06T17:20:46.637Z,1.50
2019-02-06T17:23:44.870Z,1.50
2019-02-06T17:26:29.978Z,1.50
2019-02-06T17:29:29.639Z,1.60
2019-02-06T17:32:34.800Z,1.60
2019-02-06T17:35:54.702Z,1.60
2019-02-06T17:39:24.150Z,1.70
2019-02-06T17:42:16.076Z,1.80
2019-02-06T17:45:32.219Z,1.80
2019-02-06T17:48:45.539Z,1.70
2019-02-06T18:02:05.346Z,1.90
2019-02-06T18:04:40.173Z,1.80
2019-02-06T18:07:11.294Z,1.90
2019-02-06T18:09:46.545Z,1.80
2019-02-06T18:12:26.368Z,1.80
2019-02-06T18:14:48.954Z,1.80
2019-02-06T18:17:19.414Z,1.70
2019-02-06T18:19:49.331Z,1.80
2019-02-06T18:22:22.464Z,1.80
2019-02-06T18:24:51.835Z,1.80
2019-02-06T18:27:23.076Z,1.80
2019-02-06T18:30:02.059Z,1.70
2019-02-06T18:32:39.268Z,1.70
2019-02-06T18:35:14.050Z,1.70
2019-02-06T18:37:51.550Z,1.70
2019-02-06T18:40:26.807Z,1.60
2019-02-06T18:43:00.328Z,1.60
2019-02-06T18:48:37.746Z,1.30
2019-02-06T18:51:24.208Z,1.30
2019-02-06T18:54:02.809Z,1.40
2019-02-06T18:56:36.655Z,1.40
2019-02-06T18:59:19.166Z,1.40
2019-02-06T19:02:08.570Z,1.40
2019-02-06T19:04:40.073Z,1.40
2019-02-06T19:07:24.835Z,1.30
2019-02-06T19:10:04.433Z,1.30
2019-02-06T19:33:52.206Z,1.00
2019-02-06T19:36:48.334Z,1.00
2019-02-06T19:39:25.227Z,1.00
2019-02-06T19:42:00.135Z,1.00
2019-02-06T19:44:30.550Z,1.00
2019-02-06T19:47:04.354Z,0.90
2019-02-06T19:49:37.619Z,1.00
2019-02-06T19:52:07.057Z,0.90
2019-02-06T19:54:43.030Z,0.90
2019-02-06T19:57:20.738Z,0.90
2019-02-06T19:59:47.612Z,0.80
2019-02-06T20:02:29.061Z,0.80
2019-02-06T20:05:05.517Z,0.80
2019-02-06T20:08:08.185Z,0.80
2019-02-06T20:10:48.156Z,0.80
2019-02-06T20:16:10.486Z,0.80
2019-02-06T20:18:49.157Z,0.70
2019-02-06T20:21:35.670Z,0.70
2019-02-06T20:24:11.543Z,0.60
2019-02-06T20:26:42.839Z,0.60
2019-02-06T20:29:13.670Z,0.60
2019-02-06T20:31:44.886Z,0.60
2019-02-06T20:34:16.470Z,0.50
2019-02-06T20:37:22.411Z,0.50
2019-02-06T20:40:10.735Z,0.50
2019-02-06T20:43:09.000Z,0.50
2019-02-06T20:45:39.891Z,0.50
2019-02-06T20:48:16.892Z,0.50
2019-02-06T20:51:09.665Z,0.50
2019-02-06T20:53:51.565Z,0.40
2019-02-06T20:56:21.210Z,0.40
2019-02-06T20:58:58.707Z,0.30
2019-02-06T21:01:29.713Z,0.30
2019-02-06T21:04:01.597Z,0.30
2019-02-06T21:06:34.142Z,0.30
2019-02-06T21:09:06.082Z,0.30
2019-02-06T21:11:37.042Z,0.30
2019-02-06T21:14:08.606Z,0.30
2019-02-06T21:16:38.502Z,0.30
2019-02-06T21:19:09.075Z,0.30
2019-02-06T21:21:59.642Z,0.30
2019-02-06T21:24:24.605Z,0.30
2019-02-06T21:26:54.502Z,0.30
2019-02-06T21:29:29.832Z,0.30
2019-02-06T21:31:59.929Z,0.20
2019-02-06T21:34:30.569Z,0.20
2019-02-06T21:37:04.155Z,0.20
2019-02-06T21:39:50.212Z,0.20
2019-02-06T21:42:41.474Z,0.20
2019-02-06T21:45:11.651Z,0.10
2019-02-06T21:47:45.495Z,0.10
2019-02-06T21:50:17.266Z,0.10
2019-02-06T21:53:00.136Z,0.00
2019-02-06T21:55:30.269Z,0.10
2019-02-06T21:58:07.074Z,0.10
2019-02-06T22:00:43.997Z,0.10
2019-02-06T22:03:18.067Z,0.10
2019-02-06T22:05:57.990Z,0.00
2019-02-06T22:08:36.166Z,0.00
2019-02-06T22:11:07.317Z,0.00
2019-02-06T22:13:38.417Z,0.00
2019-02-06T22:16:08.824Z,0.00
2019-02-06T22:18:46.769Z,-0.10
2019-02-06T22:21:16.893Z,-0.10
2019-02-06T22:23:49.423Z,-0.10
2019-02-06T22:26:29.737Z,-0.10
2019-02-06T22:29:00.453Z,-0.10
2019-02-06T22:31:30.486Z,-0.10
2019-02-06T22:34:11.706Z,-0.10
2019-02-06T22:36:42.072Z,-0.10
2019-02-06T22:39:17.320Z,-0.10
2019-02-06T22:41:47.417Z,-0.20
2019-02-06T22:44:17.731Z,-0.20
2019-02-06T22:46:48.329Z,-0.30
2019-02-06T22:49:18.987Z,-0.30
2019-02-06T22:51:54.420Z,-0.30
2019-02-06T22:54:28.376Z,-0.30
2019-02-06T22:56:58.278Z,-0.30
2019-02-06T22:59:29.457Z,-0.30
2019-02-06T23:02:00.262Z,-0.40
2019-02-06T23:04:30.344Z,-0.50
2019-02-06T23:07:00.763Z,-0.60
2019-02-06T23:09:31.370Z,-0.60
2019-02-06T23:12:01.666Z,-0.60
2019-02-06T23:14:32.402Z,-0.60
2019-02-06T23:17:03.353Z,-0.50
2019-02-06T23:19:37.204Z,-0.50
2019-02-06T23:22:10.570Z,-0.50
2019-02-06T23:24:39.107Z,-0.60
2019-02-06T23:27:09.257Z,-0.70
2019-02-06T23:29:39.205Z,-0.60
2019-02-06T23:32:09.131Z,-0.60
2019-02-06T23:34:40.509Z,-0.50
2019-02-06T23:37:12.823Z,-0.50
2019-02-06T23:39:54.468Z,-0.50
2019-02-06T23:42:24.812Z,-0.50
2019-02-06T23:44:58.467Z,-0.50
2019-02-06T23:47:28.822Z,-0.50
2019-02-06T23:49:59.778Z,-0.40
2019-02-06T23:52:31.372Z,-0.40
2019-02-06T23:55:02.083Z,-0.50
2019-02-06T23:57:35.316Z,-0.50
